• Join FlightAware (Why Join?)
  • Login
  • US Flag 
07:00AM EDT


 

Airport Tracker/Info


-or-


 

Live Flight TrackerFlight Track Log ✈ SKW5564 ✈ 01-Nov-2013 ✈ KDEN - KBIS

Flight Track Log - Related Links

Times and Time Zones

All times are in EDT time to prevent confusion due to time zone crossing. See the SKW5564 flight status page for this flight to view local times or setup timezone preferences in your user account.

Time Position Orientation Groundspeed Altitude Reporting Facility
EDT Latitude Longitude Course Direction KTS MPH feet Rate Location/Type
12:18AM 39.9387 -104.6343 108° East  Level Estimated
12:19AM 39.9267 -104.6124 126° Southeast  Level FlightAware Approximate
12:20AM 39.9146 -104.5906 126° Southeast  Level FlightAware Approximate
12:20AM 39.8167 -104.6667 143° Southeast 172 198 6,800  Level Denver TRACON
12:21AM 39.9026 -104.5687 126° Southeast  Level FlightAware Approximate
12:21AM 39.7500 -104.6333 159° South 227 261 8,700  Level Denver TRACON
12:22AM 39.8905 -104.5469 126° Southeast  Level FlightAware Approximate
12:22AM 39.6853 -104.6300 178° South 262 302 10,500  Level Denver Center
12:23AM 39.9098 -104.5374 163° South  Level Estimated
12:23AM 39.5931 -104.6364 183° South 337 388 11,600  Level Denver Center
12:24AM 39.8933 -104.5213 143° Southeast  Level FlightAware Approximate
12:24AM 39.4886 -104.6456 184° South 380 437 12,100  Level Denver Center
12:25AM 39.8767 -104.5052 143° Southeast  Level FlightAware Approximate
12:25AM 39.3742 -104.6544 183° South 412 474 12,000  Level Denver Center
12:25AM 39.3508 -104.6558 183° South 414 476 12,000  Level Denver Center
12:26AM 39.2603 -104.6644 184° South 404 465 12,000  Level Denver Center
12:27AM 39.1406 -104.6781 185° South 395 455 12,000 -300 Level Denver Center
12:28AM 39.0572 -104.6917 187° South 339 390 11,500 -360 Descending Denver Center
12:29AM 38.9842 -104.7039 187° South 259 298 11,300 -600 Descending Denver Center
12:29AM 38.9711 -104.7086 196° South 227 261 10,800 -1,800 Descending Denver Center
12:30AM 38.9283 -104.7169 189° South 207 238 9,500 -1,500 Descending Denver Center
12:31AM 38.8764 -104.7161 179° South 182 209 8,100 -1,440 Descending Denver Center
12:33AM 38.8000 -104.7000 247° West  Level FlightAware Approximate
12:40AM 39.5711 -104.3616 247° West  Level Estimated
12:41AM 39.6812 -104.3127 247° West  Level Estimated
12:42AM 39.7913 -104.2636 247° West  Level Estimated
12:43AM 39.9013 -104.2143 247° West  Level Estimated
12:44AM 40.0113 -104.1649 247° West  Level Estimated
12:45AM 40.1213 -104.1153 247° West  Level Estimated
12:46AM 40.2313 -104.0656 247° West  Level Estimated
12:47AM 40.3412 -104.0157 247° West  Level Estimated
12:48AM 40.4512 -103.9656 247° West  Level Estimated
12:49AM 40.5611 -103.9154 247° West  Level Estimated
12:50AM 40.6710 -103.8650 247° West  Level Estimated
12:51AM 40.7808 -103.8144 247° West  Level Estimated
12:52AM 40.8907 -103.7637 247° West  Level Estimated
12:53AM 41.0005 -103.7128 247° West  Level Estimated
12:54AM 41.1103 -103.6617 247° West  Level Estimated
12:55AM 41.2201 -103.6105 247° West  Level Estimated
12:56AM 41.3298 -103.5591 247° West  Level Estimated
12:57AM 41.4396 -103.5075 247° West  Level Estimated
12:58AM 41.5493 -103.4557 247° West  Level Estimated
12:59AM 41.6590 -103.4038 247° West  Level Estimated
01:00AM 41.7686 -103.3517 247° West  Level Estimated
01:01AM 41.8783 -103.2994 247° West  Level Estimated
01:02AM 41.9879 -103.2469 247° West  Level Estimated
01:03AM 42.0975 -103.1943 247° West  Level Estimated
01:04AM 42.2070 -103.1415 247° West  Level Estimated
01:05AM 42.3166 -103.0884 247° West  Level Estimated
01:06AM 42.4261 -103.0352 247° West  Level Estimated
01:07AM 42.5356 -102.9818 247° West  Level Estimated
01:08AM 42.6450 -102.9283 247° West  Level Estimated
01:09AM 42.7545 -102.8745 247° West  Level Estimated
01:10AM 42.8639 -102.8206 247° West  Level Estimated
01:11AM 42.9733 -102.7664 247° West  Level Estimated
01:12AM 43.0827 -102.7121 247° West  Level Estimated
01:13AM 43.1920 -102.6575 247° West  Level Estimated
01:14AM 43.3013 -102.6028 247° West  Level Estimated
01:15AM 43.4106 -102.5479 247° West  Level Estimated
01:16AM 43.5199 -102.4928 247° West  Level Estimated
01:17AM 43.6291 -102.4374 247° West  Level Estimated
01:18AM 43.7383 -102.3819 247° West  Level Estimated
01:19AM 43.8475 -102.3262 247° West  Level Estimated
01:20AM 43.9566 -102.2702 247° West  Level Estimated
01:21AM 44.0658 -102.2141 247° West  Level Estimated
01:22AM 44.1749 -102.1577 247° West  Level Estimated
01:23AM 44.2839 -102.1012 247° West  Level Estimated
01:24AM 44.3930 -102.0444 247° West  Level Estimated
01:25AM 44.5020 -101.9874 247° West  Level Estimated
01:26AM 44.6110 -101.9302 247° West  Level Estimated
01:27AM 44.7199 -101.8728 247° West  Level Estimated
01:28AM 44.8289 -101.8152 247° West  Level Estimated
01:29AM 44.9378 -101.7574 247° West  Level Estimated
01:30AM 45.0466 -101.6993 247° West  Level Estimated
01:31AM 45.1555 -101.6410 247° West  Level Estimated
01:32AM 45.2643 -101.5825 247° West  Level Estimated
01:33AM 45.3731 -101.5238 247° West  Level Estimated
01:34AM 45.4818 -101.4648 247° West  Level Estimated
01:35AM 45.5905 -101.4056 247° West  Level Estimated
01:36AM 45.6992 -101.3462 247° West  Level Estimated
01:37AM 45.8079 -101.2866 247° West  Level Estimated
01:38AM 45.9165 -101.2267 247° West  Level Estimated
01:39AM 46.0251 -101.1666 247° West  Level Estimated